createdAt,value
2022-12-13T00:01:55.095Z,-3.30
2022-12-13T00:04:24.567Z,-3.30
2022-12-13T00:06:53.852Z,-3.30
2022-12-13T00:09:20.815Z,-3.40
2022-12-13T00:11:49.606Z,-3.40
2022-12-13T00:14:17.908Z,-3.50
2022-12-13T00:16:49.317Z,-3.50
2022-12-13T00:19:17.811Z,-3.50
2022-12-13T00:21:44.982Z,-3.40
2022-12-13T00:24:12.389Z,-3.50
2022-12-13T00:26:39.510Z,-3.40
2022-12-13T00:29:08.345Z,-3.50
2022-12-13T00:31:58.570Z,-3.50
2022-12-13T00:34:23.574Z,-3.50
2022-12-13T00:36:50.522Z,-3.50
2022-12-13T00:39:18.965Z,-3.50
2022-12-13T00:41:46.740Z,-3.50
2022-12-13T00:44:14.647Z,-3.50
2022-12-13T00:46:42.018Z,-3.50
2022-12-13T00:49:10.973Z,-3.60
2022-12-13T00:51:38.620Z,-3.70
2022-12-13T00:54:06.170Z,-3.70
2022-12-13T00:56:33.890Z,-3.70
2022-12-13T00:59:00.935Z,-3.60
2022-12-13T01:01:32.414Z,-3.60
2022-12-13T01:04:01.866Z,-3.70
2022-12-13T01:06:40.932Z,-3.70
2022-12-13T01:09:21.120Z,-3.60
2022-12-13T01:11:49.233Z,-3.70
2022-12-13T01:14:17.114Z,-3.70
2022-12-13T01:16:44.115Z,-3.70
2022-12-13T01:19:11.076Z,-3.80
2022-12-13T01:21:38.135Z,-3.90
2022-12-13T01:24:06.411Z,-3.80
2022-12-13T01:26:33.765Z,-3.80
2022-12-13T01:29:01.207Z,-3.80
2022-12-13T01:31:28.963Z,-3.80
2022-12-13T01:33:55.835Z,-3.80
2022-12-13T01:36:27.144Z,-3.80
2022-12-13T01:38:58.592Z,-3.90
2022-12-13T01:41:28.654Z,-3.90
2022-12-13T01:44:03.490Z,-3.90
2022-12-13T01:46:34.748Z,-3.90
2022-12-13T01:49:20.114Z,-3.90
2022-12-13T01:52:04.891Z,-4.00
2022-12-13T01:54:46.454Z,-4.00
2022-12-13T01:57:18.975Z,-3.90
2022-12-13T01:59:48.025Z,-3.90
2022-12-13T02:02:16.037Z,-4.00
2022-12-13T02:05:06.857Z,-4.10
2022-12-13T02:07:38.047Z,-4.10
2022-12-13T02:10:07.554Z,-4.00
2022-12-13T02:12:37.575Z,-4.10
2022-12-13T02:15:13.144Z,-4.10
2022-12-13T02:18:10.749Z,-4.10
2022-12-13T02:21:24.595Z,-4.10
2022-12-13T02:24:38.078Z,-4.10
2022-12-13T02:27:46.097Z,-4.20
2022-12-13T02:30:26.957Z,-4.20
2022-12-13T02:33:11.745Z,-4.20
2022-12-13T02:36:08.715Z,-4.20
2022-12-13T02:38:53.813Z,-4.20
2022-12-13T02:41:49.075Z,-4.30
2022-12-13T02:44:28.535Z,-4.20
2022-12-13T02:47:02.674Z,-4.20
2022-12-13T02:49:35.543Z,-4.30
2022-12-13T02:52:03.481Z,-4.30
2022-12-13T02:54:31.057Z,-4.30
2022-12-13T02:57:00.251Z,-4.30
2022-12-13T02:59:39.780Z,-4.30
2022-12-13T03:02:31.099Z,-4.30
2022-12-13T03:05:30.358Z,-4.30
2022-12-13T03:08:31.628Z,-4.30
2022-12-13T03:11:18.270Z,-4.30
2022-12-13T03:13:52.274Z,-4.30
2022-12-13T03:16:52.569Z,-4.30
2022-12-13T03:19:20.312Z,-4.40
2022-12-13T03:21:49.694Z,-4.40
2022-12-13T03:24:20.291Z,-4.40
2022-12-13T03:26:49.935Z,-4.40
2022-12-13T03:29:23.766Z,-4.40
2022-12-13T03:31:53.498Z,-4.40
2022-12-13T03:34:23.152Z,-4.40
2022-12-13T03:36:52.760Z,-4.40
2022-12-13T03:39:21.551Z,-4.50
2022-12-13T03:41:49.614Z,-4.50
2022-12-13T03:44:16.645Z,-4.50
2022-12-13T03:46:44.646Z,-4.50
2022-12-13T03:49:16.863Z,-4.50
2022-12-13T03:51:44.214Z,-4.50
2022-12-13T03:54:11.096Z,-4.50
2022-12-13T03:56:37.933Z,-4.40
2022-12-13T03:59:04.760Z,-4.40
2022-12-13T04:01:31.619Z,-4.40
2022-12-13T04:03:58.399Z,-4.50
2022-12-13T04:06:29.833Z,-4.60
2022-12-13T04:08:59.624Z,-4.50
2022-12-13T04:11:44.979Z,-4.60
2022-12-13T04:14:12.347Z,-4.60
2022-12-13T04:16:49.836Z,-4.50
2022-12-13T04:19:16.709Z,-4.50
2022-12-13T04:21:54.578Z,-4.50
2022-12-13T04:24:31.741Z,-4.50
2022-12-13T04:27:02.382Z,-4.50
2022-12-13T04:29:34.182Z,-4.50
2022-12-13T04:32:26.319Z,-4.50
2022-12-13T04:34:52.726Z,-4.50
2022-12-13T04:37:28.296Z,-4.60
2022-12-13T04:40:00.526Z,-4.60
2022-12-13T04:42:28.458Z,-4.60
2022-12-13T04:44:55.271Z,-4.60
2022-12-13T04:47:22.172Z,-4.60
2022-12-13T04:49:49.089Z,-4.60
2022-12-13T04:52:22.419Z,-4.60
2022-12-13T04:54:55.812Z,-4.60
2022-12-13T04:57:23.558Z,-4.60
2022-12-13T04:59:50.373Z,-4.60
2022-12-13T05:02:23.439Z,-4.60
2022-12-13T05:04:53.557Z,-4.60
2022-12-13T05:07:23.314Z,-4.60
2022-12-13T05:09:50.112Z,-4.50
2022-12-13T05:12:22.454Z,-4.50
2022-12-13T05:14:53.901Z,-4.50
2022-12-13T05:17:21.455Z,-4.60
2022-12-13T05:19:48.454Z,-4.60
2022-12-13T05:22:20.635Z,-4.60
2022-12-13T05:24:48.935Z,-4.60
2022-12-13T05:27:24.426Z,-4.60
2022-12-13T05:30:03.285Z,-4.70
2022-12-13T05:32:43.370Z,-4.60
2022-12-13T05:35:22.854Z,-4.60
2022-12-13T05:37:55.274Z,-4.60
2022-12-13T05:40:27.603Z,-4.60
2022-12-13T05:43:00.792Z,-4.60
2022-12-13T05:45:30.959Z,-4.60
2022-12-13T05:47:58.185Z,-4.60
2022-12-13T05:50:25.618Z,-4.60
2022-12-13T05:52:52.538Z,-4.60
2022-12-13T05:55:19.682Z,-4.60
2022-12-13T05:57:51.015Z,-4.70
2022-12-13T06:00:28.916Z,-4.70
2022-12-13T06:02:56.559Z,-4.80
2022-12-13T06:05:27.586Z,-4.80
2022-12-13T06:07:57.607Z,-4.70
2022-12-13T06:10:35.059Z,-4.70
2022-12-13T06:13:22.030Z,-4.70
2022-12-13T06:15:51.922Z,-4.80
2022-12-13T06:18:28.375Z,-4.70
2022-12-13T06:21:02.229Z,-4.70
2022-12-13T06:23:32.050Z,-4.80
2022-12-13T06:25:59.134Z,-4.80
2022-12-13T06:28:25.937Z,-4.80
2022-12-13T06:30:52.849Z,-4.90
2022-12-13T06:33:23.520Z,-4.90
2022-12-13T06:35:52.516Z,-4.90
2022-12-13T06:38:22.001Z,-4.90
2022-12-13T06:41:32.063Z,-4.80
2022-12-13T06:43:59.512Z,-4.70
2022-12-13T06:46:26.569Z,-4.80
2022-12-13T06:48:53.550Z,-4.80
2022-12-13T06:51:22.981Z,-4.80
2022-12-13T06:54:00.933Z,-4.90
2022-12-13T06:56:28.691Z,-4.90
2022-12-13T06:59:01.125Z,-4.90
2022-12-13T07:01:37.056Z,-4.90
2022-12-13T07:04:29.554Z,-4.90
2022-12-13T07:06:55.847Z,-5.00
2022-12-13T07:09:30.223Z,-5.00
2022-12-13T07:11:57.154Z,-5.00
2022-12-13T07:14:24.000Z,-4.90
2022-12-13T07:16:50.725Z,-4.90
2022-12-13T07:19:23.042Z,-4.90
2022-12-13T07:21:51.909Z,-4.80
2022-12-13T07:24:19.153Z,-4.80
2022-12-13T07:26:46.634Z,-4.70
2022-12-13T07:29:13.428Z,-4.80
2022-12-13T07:31:49.283Z,-4.90
2022-12-13T07:34:16.196Z,-4.80
2022-12-13T07:36:43.029Z,-4.90
2022-12-13T07:39:10.779Z,-4.90
2022-12-13T07:41:37.638Z,-4.90
2022-12-13T07:44:06.134Z,-4.80
2022-12-13T07:46:34.306Z,-4.80
2022-12-13T07:49:05.678Z,-4.80
2022-12-13T07:51:35.172Z,-4.70
2022-12-13T07:54:06.763Z,-4.80
2022-12-13T07:56:35.261Z,-4.70
2022-12-13T07:59:02.465Z,-4.80
2022-12-13T08:01:34.669Z,-4.80
2022-12-13T08:04:03.646Z,-4.90
2022-12-13T08:06:35.353Z,-4.80
2022-12-13T08:09:04.037Z,-4.80
2022-12-13T08:11:31.371Z,-4.80
2022-12-13T08:13:58.209Z,-4.80
2022-12-13T08:16:27.157Z,-4.80
2022-12-13T08:19:02.306Z,-4.80
2022-12-13T08:21:57.172Z,-4.70
2022-12-13T08:24:29.645Z,-4.70
2022-12-13T08:27:01.123Z,-4.70
2022-12-13T08:29:34.685Z,-4.70
2022-12-13T08:32:06.062Z,-4.70
2022-12-13T08:34:32.981Z,-4.70
2022-12-13T08:37:02.651Z,-4.60
2022-12-13T08:39:38.892Z,-4.60
2022-12-13T08:42:16.505Z,-4.50
2022-12-13T08:44:50.710Z,-4.50
2022-12-13T08:47:24.070Z,-4.50
2022-12-13T08:50:02.285Z,-4.40
2022-12-13T08:52:39.519Z,-4.30
2022-12-13T08:55:13.317Z,-4.20
2022-12-13T08:57:41.873Z,-4.20
2022-12-13T09:00:13.912Z,-4.10
2022-12-13T09:02:40.844Z,-4.00
2022-12-13T09:05:09.666Z,-3.90
2022-12-13T09:07:39.567Z,-3.80
2022-12-13T09:10:25.485Z,-3.80
2022-12-13T09:13:01.537Z,-3.80
2022-12-13T09:15:34.295Z,-3.70
2022-12-13T09:18:04.892Z,-3.60
2022-12-13T09:20:41.131Z,-3.50
2022-12-13T09:23:21.596Z,-3.50
2022-12-13T09:26:05.326Z,-3.40
2022-12-13T09:28:36.914Z,-3.30
2022-12-13T09:31:19.162Z,-3.20
2022-12-13T09:33:46.801Z,-3.10
2022-12-13T09:36:18.212Z,-3.10
2022-12-13T09:38:45.824Z,-3.00
2022-12-13T09:41:28.407Z,-2.90
2022-12-13T09:44:30.614Z,-2.80
2022-12-13T09:47:02.007Z,-2.60
2022-12-13T09:49:43.112Z,-2.20
2022-12-13T09:52:24.949Z,-2.30
2022-12-13T09:54:57.475Z,-2.10
2022-12-13T09:57:33.836Z,-2.00
2022-12-13T10:00:07.953Z,-1.90
2022-12-13T10:02:51.701Z,-2.10
2022-12-13T10:05:39.433Z,-2.20
2022-12-13T10:08:21.758Z,-2.10
2022-12-13T10:10:51.682Z,-2.00
2022-12-13T10:14:01.989Z,-1.80
2022-12-13T10:16:42.099Z,-1.80
2022-12-13T10:19:40.310Z,-1.80
2022-12-13T10:22:15.604Z,-1.90
2022-12-13T10:25:04.760Z,-1.90
2022-12-13T10:27:40.418Z,-1.90
2022-12-13T10:30:26.155Z,-1.90
2022-12-13T10:32:57.127Z,-1.80
2022-12-13T10:35:30.246Z,-1.70
2022-12-13T10:38:20.633Z,-1.60
2022-12-13T10:40:49.048Z,-1.60
2022-12-13T10:43:29.981Z,-1.50
2022-12-13T10:45:59.084Z,-1.50
2022-12-13T10:48:40.646Z,-1.40
2022-12-13T10:51:17.661Z,-1.20
2022-12-13T10:53:51.919Z,-1.20
2022-12-13T10:56:23.506Z,-1.10
2022-12-13T10:59:23.397Z,-1.10
2022-12-13T11:01:50.257Z,-1.10
2022-12-13T11:04:35.903Z,-1.00
2022-12-13T11:07:34.082Z,-1.00
2022-12-13T11:10:27.016Z,-0.90
2022-12-13T11:13:03.774Z,-0.80
2022-12-13T11:15:35.861Z,-0.70
2022-12-13T11:18:18.426Z,-0.80
2022-12-13T11:21:11.751Z,-0.70
2022-12-13T11:23:44.672Z,-0.70
2022-12-13T11:26:24.366Z,-0.60
2022-12-13T11:29:43.690Z,-0.60
2022-12-13T11:32:43.758Z,-0.70
2022-12-13T11:35:17.937Z,-0.70
2022-12-13T11:38:37.356Z,-0.60
2022-12-13T11:41:32.380Z,-0.70
2022-12-13T11:44:29.445Z,-0.70
2022-12-13T11:46:59.875Z,-0.70
2022-12-13T11:49:41.149Z,-0.60
2022-12-13T11:52:35.269Z,-0.60
2022-12-13T11:55:11.650Z,-0.70
2022-12-13T11:57:52.819Z,-0.70
2022-12-13T12:00:37.352Z,-0.80
2022-12-13T12:03:21.151Z,-0.80
2022-12-13T12:05:55.923Z,-0.70
2022-12-13T12:08:51.084Z,-0.70
2022-12-13T12:11:44.671Z,-0.80
2022-12-13T12:14:35.862Z,-0.70
2022-12-13T12:17:06.210Z,-0.70
2022-12-13T12:19:40.197Z,-0.60
2022-12-13T12:23:08.277Z,-0.60
2022-12-13T12:25:52.625Z,-0.60
2022-12-13T12:29:20.272Z,-0.50
2022-12-13T12:32:32.030Z,-0.50
2022-12-13T12:36:16.330Z,-0.60
2022-12-13T12:38:52.263Z,-0.50
2022-12-13T12:41:45.523Z,-0.40
2022-12-13T12:44:30.760Z,-0.40
2022-12-13T12:50:45.863Z,-0.50
2022-12-13T12:53:42.910Z,-0.40
2022-12-13T12:56:15.642Z,-0.50
2022-12-13T12:59:14.049Z,-0.60
2022-12-13T13:02:07.911Z,-0.70
2022-12-13T13:04:44.673Z,-0.60
2022-12-13T13:07:24.101Z,-0.50
2022-12-13T13:09:54.872Z,-0.50
2022-12-13T13:12:29.151Z,-0.50
2022-12-13T13:14:56.672Z,-0.40
2022-12-13T13:17:26.196Z,-0.50
2022-12-13T13:20:17.600Z,-0.60
2022-12-13T13:22:53.754Z,-0.50
2022-12-13T13:25:43.891Z,-0.50
2022-12-13T13:28:22.577Z,-0.50
2022-12-13T13:31:10.576Z,-0.80
2022-12-13T13:33:51.334Z,-0.70
2022-12-13T13:36:41.203Z,-0.70
2022-12-13T13:39:36.274Z,-0.60
2022-12-13T13:42:20.522Z,-0.60
2022-12-13T13:44:50.129Z,-0.70
2022-12-13T13:47:20.008Z,-0.60
2022-12-13T13:50:08.664Z,-0.60
2022-12-13T13:52:44.645Z,-0.60
2022-12-13T13:56:00.167Z,-0.70
2022-12-13T13:59:03.352Z,-0.80
2022-12-13T14:02:05.522Z,-0.70
2022-12-13T14:05:30.416Z,-0.70
2022-12-13T14:08:20.508Z,-0.70
2022-12-13T14:11:21.599Z,-0.60
2022-12-13T14:14:00.342Z,-0.70
2022-12-13T14:16:50.081Z,-0.70
2022-12-13T14:20:12.731Z,-0.60
2022-12-13T14:23:00.855Z,-0.80
2022-12-13T14:26:13.997Z,-0.70
2022-12-13T14:29:01.499Z,-0.80
2022-12-13T14:31:41.763Z,-0.80
2022-12-13T14:34:25.420Z,-0.70
2022-12-13T14:37:18.508Z,-0.80
2022-12-13T14:39:45.385Z,-0.90
2022-12-13T14:42:33.953Z,-0.80
2022-12-13T14:45:26.080Z,-0.80
2022-12-13T14:47:54.636Z,-0.80
2022-12-13T14:50:23.679Z,-0.80
2022-12-13T14:52:50.667Z,-0.80
2022-12-13T14:55:30.383Z,-0.90
2022-12-13T14:58:02.778Z,-0.80
2022-12-13T15:00:39.169Z,-0.90
2022-12-13T15:03:07.284Z,-0.80
2022-12-13T15:05:50.888Z,-0.90
2022-12-13T15:08:20.298Z,-0.90
2022-12-13T15:10:54.804Z,-0.90
2022-12-13T15:13:46.833Z,-0.90
2022-12-13T15:16:28.217Z,-0.90
2022-12-13T15:19:30.293Z,-1.00
2022-12-13T15:22:07.501Z,-1.00
2022-12-13T15:24:46.861Z,-1.00
2022-12-13T15:27:21.612Z,-1.10
2022-12-13T15:29:51.013Z,-1.10
2022-12-13T15:32:22.599Z,-1.00
2022-12-13T15:34:51.259Z,-1.10
2022-12-13T15:37:32.961Z,-1.20
2022-12-13T15:40:08.326Z,-1.10
2022-12-13T15:42:49.003Z,-1.20
2022-12-13T15:45:34.780Z,-1.20
2022-12-13T15:48:04.906Z,-1.30
2022-12-13T15:50:35.026Z,-1.10
2022-12-13T15:53:21.413Z,-1.20
2022-12-13T15:55:48.265Z,-1.20
2022-12-13T15:58:37.014Z,-1.20
2022-12-13T16:01:07.443Z,-1.30
2022-12-13T16:03:46.651Z,-1.30
2022-12-13T16:06:22.222Z,-1.20
2022-12-13T16:08:56.900Z,-1.30
2022-12-13T16:11:36.106Z,-1.40
2022-12-13T16:14:31.511Z,-1.30
2022-12-13T16:17:19.532Z,-1.40
2022-12-13T16:19:46.554Z,-1.40
2022-12-13T16:22:13.434Z,-1.20
2022-12-13T16:24:40.241Z,-1.30
2022-12-13T16:27:09.096Z,-1.30
2022-12-13T16:29:36.673Z,-1.30
2022-12-13T16:32:08.432Z,-1.30
2022-12-13T16:34:38.939Z,-1.40
2022-12-13T16:37:08.840Z,-1.40
2022-12-13T16:39:53.942Z,-1.40
2022-12-13T16:42:21.090Z,-1.40
2022-12-13T16:45:05.806Z,-1.40
2022-12-13T16:47:46.380Z,-1.40
2022-12-13T16:50:19.163Z,-1.40
2022-12-13T16:52:46.613Z,-1.40
2022-12-13T16:55:13.579Z,-1.50
2022-12-13T16:57:40.560Z,-1.50
2022-12-13T17:00:10.605Z,-1.50
2022-12-13T17:02:38.216Z,-1.50
2022-12-13T17:05:06.135Z,-1.50
2022-12-13T17:07:35.375Z,-1.50
2022-12-13T17:10:02.735Z,-1.40
2022-12-13T17:12:29.510Z,-1.40
2022-12-13T17:14:56.306Z,-1.40
2022-12-13T17:17:23.262Z,-1.50
2022-12-13T17:19:50.155Z,-1.50
2022-12-13T17:22:17.036Z,-1.60
2022-12-13T17:24:43.986Z,-1.60
2022-12-13T17:27:10.873Z,-1.70
2022-12-13T17:29:37.840Z,-1.70
2022-12-13T17:32:05.239Z,-1.60
2022-12-13T17:34:32.477Z,-1.60
2022-12-13T17:36:59.310Z,-1.50
2022-12-13T17:39:26.160Z,-1.50
2022-12-13T17:41:54.848Z,-1.50
2022-12-13T17:44:26.374Z,-1.60
2022-12-13T17:46:55.651Z,-1.60
2022-12-13T17:49:24.273Z,-1.50
2022-12-13T17:51:53.828Z,-1.50
2022-12-13T17:54:23.711Z,-1.60
2022-12-13T17:56:51.667Z,-1.50
2022-12-13T17:59:19.165Z,-1.40
2022-12-13T18:01:46.637Z,-1.50
2022-12-13T18:04:14.034Z,-1.40
2022-12-13T18:06:42.476Z,-1.40
2022-12-13T18:09:11.986Z,-1.40
2022-12-13T18:11:39.710Z,-1.30
2022-12-13T18:14:08.697Z,-1.40
2022-12-13T18:16:38.349Z,-1.40
2022-12-13T18:19:14.116Z,-1.40
2022-12-13T18:21:43.168Z,-1.40
2022-12-13T18:24:10.876Z,-1.40
2022-12-13T18:26:37.696Z,-1.50
2022-12-13T18:29:04.857Z,-1.50
2022-12-13T18:31:31.879Z,-1.50
2022-12-13T18:33:59.292Z,-1.50
2022-12-13T18:36:26.511Z,-1.50
2022-12-13T18:38:53.802Z,-1.40
2022-12-13T18:41:24.725Z,-1.40
2022-12-13T18:44:13.428Z,-1.60
2022-12-13T18:46:44.761Z,-1.50
2022-12-13T18:49:13.064Z,-1.60
2022-12-13T18:51:39.806Z,-1.50
2022-12-13T18:54:07.641Z,-1.60
2022-12-13T18:56:34.386Z,-1.60
2022-12-13T18:59:01.179Z,-1.70
2022-12-13T19:01:28.577Z,-1.60
2022-12-13T19:03:55.468Z,-1.50
2022-12-13T19:06:27.735Z,-1.60
2022-12-13T19:08:57.885Z,-1.60
2022-12-13T19:11:28.038Z,-1.60
2022-12-13T19:13:55.486Z,-1.60
2022-12-13T19:16:25.520Z,-1.70
2022-12-13T19:18:52.892Z,-1.60
2022-12-13T19:21:22.053Z,-1.70
2022-12-13T19:23:56.502Z,-1.80
2022-12-13T19:26:27.032Z,-1.70
2022-12-13T19:28:57.618Z,-1.70
2022-12-13T19:31:30.961Z,-1.60
2022-12-13T19:34:01.522Z,-1.70
2022-12-13T19:36:29.816Z,-1.90
2022-12-13T19:38:56.880Z,-2.00
2022-12-13T19:41:24.234Z,-2.00
2022-12-13T19:43:52.957Z,-1.90
2022-12-13T19:46:20.290Z,-1.90
2022-12-13T19:48:47.685Z,-1.90
2022-12-13T19:51:14.927Z,-1.90
2022-12-13T19:53:42.045Z,-1.90
2022-12-13T19:56:15.117Z,-2.10
2022-12-13T19:58:41.979Z,-2.10
2022-12-13T20:01:09.515Z,-2.00
2022-12-13T20:03:45.506Z,-2.00
2022-12-13T20:06:17.265Z,-1.90
2022-12-13T20:08:45.383Z,-1.80
2022-12-13T20:11:23.287Z,-1.80
2022-12-13T20:13:54.950Z,-1.70
2022-12-13T20:16:25.251Z,-1.90
2022-12-13T20:18:57.724Z,-1.90
2022-12-13T20:21:25.315Z,-1.80
2022-12-13T20:23:52.409Z,-1.90
2022-12-13T20:26:24.442Z,-2.00
2022-12-13T20:28:51.765Z,-2.00
2022-12-13T20:31:26.386Z,-1.90
2022-12-13T20:33:58.910Z,-1.90
2022-12-13T20:36:28.655Z,-1.80
2022-12-13T20:38:58.147Z,-1.80
2022-12-13T20:41:29.323Z,-1.80
2022-12-13T20:43:58.294Z,-1.80
2022-12-13T20:46:26.876Z,-1.90
2022-12-13T20:48:55.288Z,-1.70
2022-12-13T20:51:26.417Z,-1.80
2022-12-13T20:53:54.595Z,-1.70
2022-12-13T20:56:27.979Z,-1.80
2022-12-13T20:58:55.350Z,-1.80
2022-12-13T21:01:33.140Z,-1.80
2022-12-13T21:04:02.863Z,-1.80
2022-12-13T21:06:32.372Z,-1.60
2022-12-13T21:09:02.688Z,-1.70
2022-12-13T21:11:46.824Z,-1.70
2022-12-13T21:14:28.591Z,-1.70
2022-12-13T21:17:01.130Z,-1.60
2022-12-13T21:19:39.039Z,-1.60
2022-12-13T21:22:07.531Z,-1.50
2022-12-13T21:24:34.580Z,-1.60
2022-12-13T21:27:01.687Z,-1.60
2022-12-13T21:29:28.570Z,-1.60
2022-12-13T21:31:56.097Z,-1.50
2022-12-13T21:34:23.222Z,-1.50
2022-12-13T21:36:52.309Z,-1.60
2022-12-13T21:39:28.192Z,-1.50
2022-12-13T21:41:56.041Z,-1.50
2022-12-13T21:44:23.512Z,-1.50
2022-12-13T21:49:37.875Z,-1.60
2022-12-13T21:52:05.005Z,-1.60
2022-12-13T21:54:31.796Z,-1.50
2022-12-13T21:57:16.947Z,-1.50
2022-12-13T21:59:43.750Z,-1.50
2022-12-13T22:02:19.233Z,-1.50
2022-12-13T22:04:52.437Z,-1.40
2022-12-13T22:07:30.335Z,-1.40
2022-12-13T22:09:59.038Z,-1.30
2022-12-13T22:12:31.951Z,-1.30
2022-12-13T22:14:59.053Z,-1.30
2022-12-13T22:17:34.636Z,-1.40
2022-12-13T22:20:02.043Z,-1.40
2022-12-13T22:22:29.122Z,-1.50
2022-12-13T22:24:56.068Z,-1.30
2022-12-13T22:27:26.232Z,-1.40
2022-12-13T22:29:58.902Z,-1.40
2022-12-13T22:32:28.962Z,-1.30
2022-12-13T22:34:56.713Z,-1.50
2022-12-13T22:37:24.696Z,-1.50
2022-12-13T22:39:51.635Z,-1.50
2022-12-13T22:42:19.512Z,-1.50
2022-12-13T22:44:46.317Z,-1.40
2022-12-13T22:47:13.075Z,-1.50
2022-12-13T22:49:40.163Z,-1.50
2022-12-13T22:52:08.443Z,-1.50
2022-12-13T22:54:35.722Z,-1.50
2022-12-13T22:57:02.739Z,-1.50
2022-12-13T22:59:29.733Z,-1.50
2022-12-13T23:02:01.986Z,-1.50
2022-12-13T23:04:32.302Z,-1.50
2022-12-13T23:06:59.081Z,-1.50
2022-12-13T23:09:25.906Z,-1.50
2022-12-13T23:12:11.268Z,-1.50
2022-12-13T23:14:38.017Z,-1.50
2022-12-13T23:17:05.783Z,-1.60
2022-12-13T23:19:50.078Z,-1.50
2022-12-13T23:22:20.594Z,-1.50
2022-12-13T23:24:47.380Z,-1.50
2022-12-13T23:27:14.407Z,-1.60
2022-12-13T23:29:41.187Z,-1.50
2022-12-13T23:32:08.128Z,-1.60
2022-12-13T23:34:35.058Z,-1.60
2022-12-13T23:37:01.826Z,-1.50
2022-12-13T23:39:28.810Z,-1.40
2022-12-13T23:41:55.711Z,-1.50
2022-12-13T23:44:22.711Z,-1.50
2022-12-13T23:46:49.536Z,-1.50
2022-12-13T23:49:17.899Z,-1.50
2022-12-13T23:51:44.785Z,-1.50
2022-12-13T23:54:16.228Z,-1.40
2022-12-13T23:56:43.329Z,-1.40
2022-12-13T23:59:10.706Z,-1.40
